sensor_id;sensor_type;location;lat;lon;timestamp;temperature;humidity
4411;DHT22;2218;51.408;7.208;2023-06-10T00:00:41;24.50;45.60
4411;DHT22;2218;51.408;7.208;2023-06-10T00:03:08;24.50;45.60
4411;DHT22;2218;51.408;7.208;2023-06-10T00:05:36;24.50;45.60
4411;DHT22;2218;51.408;7.208;2023-06-10T00:08:05;24.50;45.60
4411;DHT22;2218;51.408;7.208;2023-06-10T00:10:33;24.50;45.60
4411;DHT22;2218;51.408;7.208;2023-06-10T00:13:01;24.50;45.60
4411;DHT22;2218;51.408;7.208;2023-06-10T00:15:28;24.50;45.70
4411;DHT22;2218;51.408;7.208;2023-06-10T00:17:55;24.50;45.70
4411;DHT22;2218;51.408;7.208;2023-06-10T00:20:22;24.50;45.70
4411;DHT22;2218;51.408;7.208;2023-06-10T00:22:52;24.50;45.70
4411;DHT22;2218;51.408;7.208;2023-06-10T00:25:19;24.50;45.70
4411;DHT22;2218;51.408;7.208;2023-06-10T00:27:46;24.50;45.70
4411;DHT22;2218;51.408;7.208;2023-06-10T00:30:13;24.50;45.80
4411;DHT22;2218;51.408;7.208;2023-06-10T00:32:40;24.50;45.80
4411;DHT22;2218;51.408;7.208;2023-06-10T00:35:07;24.50;45.80
4411;DHT22;2218;51.408;7.208;2023-06-10T00:37:34;24.50;45.80
4411;DHT22;2218;51.408;7.208;2023-06-10T00:40:03;24.50;45.80
4411;DHT22;2218;51.408;7.208;2023-06-10T00:42:31;24.50;45.80
4411;DHT22;2218;51.408;7.208;2023-06-10T00:44:58;24.50;45.80
4411;DHT22;2218;51.408;7.208;2023-06-10T00:47:26;24.50;45.80
4411;DHT22;2218;51.408;7.208;2023-06-10T00:49:54;24.40;45.70
4411;DHT22;2218;51.408;7.208;2023-06-10T00:52:26;24.40;45.70
4411;DHT22;2218;51.408;7.208;2023-06-10T00:54:55;24.40;45.70
4411;DHT22;2218;51.408;7.208;2023-06-10T00:57:24;24.40;46.30
4411;DHT22;2218;51.408;7.208;2023-06-10T00:59:52;24.40;45.80
4411;DHT22;2218;51.408;7.208;2023-06-10T01:02:19;24.40;45.80
4411;DHT22;2218;51.408;7.208;2023-06-10T01:04:46;24.40;45.80
4411;DHT22;2218;51.408;7.208;2023-06-10T01:07:19;24.40;45.80
4411;DHT22;2218;51.408;7.208;2023-06-10T01:09:55;24.40;45.90
4411;DHT22;2218;51.408;7.208;2023-06-10T01:12:34;24.40;45.80
4411;DHT22;2218;51.408;7.208;2023-06-10T01:15:06;24.40;45.90
4411;DHT22;2218;51.408;7.208;2023-06-10T01:17:45;24.40;45.90
4411;DHT22;2218;51.408;7.208;2023-06-10T01:20:23;24.40;45.80
4411;DHT22;2218;51.408;7.208;2023-06-10T01:22:54;24.40;45.90
4411;DHT22;2218;51.408;7.208;2023-06-10T01:25:21;24.40;45.90
4411;DHT22;2218;51.408;7.208;2023-06-10T01:27:55;24.40;45.90
4411;DHT22;2218;51.408;7.208;2023-06-10T01:30:36;24.40;45.90
4411;DHT22;2218;51.408;7.208;2023-06-10T01:33:11;24.40;45.90
4411;DHT22;2218;51.408;7.208;2023-06-10T01:35:41;24.40;46.00
4411;DHT22;2218;51.408;7.208;2023-06-10T01:38:12;24.30;45.90
4411;DHT22;2218;51.408;7.208;2023-06-10T01:40:42;24.40;46.00
4411;DHT22;2218;51.408;7.208;2023-06-10T01:43:09;24.30;45.90
4411;DHT22;2218;51.408;7.208;2023-06-10T01:45:36;24.30;45.90
4411;DHT22;2218;51.408;7.208;2023-06-10T01:48:04;24.30;46.00
4411;DHT22;2218;51.408;7.208;2023-06-10T01:50:31;24.30;46.00
4411;DHT22;2218;51.408;7.208;2023-06-10T01:53:00;24.30;46.00
4411;DHT22;2218;51.408;7.208;2023-06-10T01:55:28;24.30;46.00
4411;DHT22;2218;51.408;7.208;2023-06-10T01:57:55;24.30;45.90
4411;DHT22;2218;51.408;7.208;2023-06-10T02:00:22;24.30;46.00
4411;DHT22;2218;51.408;7.208;2023-06-10T02:02:49;24.30;46.00
4411;DHT22;2218;51.408;7.208;2023-06-10T02:05:16;24.30;46.00
4411;DHT22;2218;51.408;7.208;2023-06-10T02:07:43;24.30;46.00
4411;DHT22;2218;51.408;7.208;2023-06-10T02:10:10;24.30;46.00
4411;DHT22;2218;51.408;7.208;2023-06-10T02:12:38;24.30;46.00
4411;DHT22;2218;51.408;7.208;2023-06-10T02:15:05;24.30;46.00
4411;DHT22;2218;51.408;7.208;2023-06-10T02:17:32;24.30;46.10
4411;DHT22;2218;51.408;7.208;2023-06-10T02:19:59;24.30;46.00
4411;DHT22;2218;51.408;7.208;2023-06-10T02:22:33;24.30;46.10
4411;DHT22;2218;51.408;7.208;2023-06-10T02:25:00;24.30;46.10
4411;DHT22;2218;51.408;7.208;2023-06-10T02:27:27;24.30;46.60
4411;DHT22;2218;51.408;7.208;2023-06-10T02:29:56;24.30;46.10
4411;DHT22;2218;51.408;7.208;2023-06-10T02:32:24;24.30;46.10
4411;DHT22;2218;51.408;7.208;2023-06-10T02:34:52;24.30;46.20
4411;DHT22;2218;51.408;7.208;2023-06-10T02:37:21;24.30;46.20
4411;DHT22;2218;51.408;7.208;2023-06-10T02:39:48;24.30;46.20
4411;DHT22;2218;51.408;7.208;2023-06-10T02:42:15;24.30;46.20
4411;DHT22;2218;51.408;7.208;2023-06-10T02:44:43;24.30;46.20
4411;DHT22;2218;51.408;7.208;2023-06-10T02:47:16;24.20;46.10
4411;DHT22;2218;51.408;7.208;2023-06-10T02:49:43;24.20;46.10
4411;DHT22;2218;51.408;7.208;2023-06-10T02:52:11;24.20;46.10
4411;DHT22;2218;51.408;7.208;2023-06-10T02:54:38;24.20;46.10
4411;DHT22;2218;51.408;7.208;2023-06-10T02:57:07;24.20;46.10
4411;DHT22;2218;51.408;7.208;2023-06-10T02:59:36;24.20;46.20
4411;DHT22;2218;51.408;7.208;2023-06-10T03:02:03;24.20;46.20
4411;DHT22;2218;51.408;7.208;2023-06-10T03:04:39;24.20;46.20
4411;DHT22;2218;51.408;7.208;2023-06-10T03:07:11;24.20;46.20
4411;DHT22;2218;51.408;7.208;2023-06-10T03:09:38;24.20;46.20
4411;DHT22;2218;51.408;7.208;2023-06-10T03:12:09;24.20;46.20
4411;DHT22;2218;51.408;7.208;2023-06-10T03:14:42;24.20;46.20
4411;DHT22;2218;51.408;7.208;2023-06-10T03:17:09;24.20;46.20
4411;DHT22;2218;51.408;7.208;2023-06-10T03:19:41;24.20;46.20
4411;DHT22;2218;51.408;7.208;2023-06-10T03:22:09;24.20;46.20
4411;DHT22;2218;51.408;7.208;2023-06-10T03:24:57;24.20;46.20
4411;DHT22;2218;51.408;7.208;2023-06-10T03:27:26;24.20;46.30
4411;DHT22;2218;51.408;7.208;2023-06-10T03:29:56;24.20;46.30
4411;DHT22;2218;51.408;7.208;2023-06-10T03:32:23;24.20;46.30
4411;DHT22;2218;51.408;7.208;2023-06-10T03:34:52;24.20;46.40
4411;DHT22;2218;51.408;7.208;2023-06-10T03:37:24;24.20;46.40
4411;DHT22;2218;51.408;7.208;2023-06-10T03:39:51;24.20;46.40
4411;DHT22;2218;51.408;7.208;2023-06-10T03:42:18;24.20;47.00
4411;DHT22;2218;51.408;7.208;2023-06-10T03:44:45;24.20;46.50
4411;DHT22;2218;51.408;7.208;2023-06-10T03:47:12;24.20;46.40
4411;DHT22;2218;51.408;7.208;2023-06-10T03:49:39;24.20;46.40
4411;DHT22;2218;51.408;7.208;2023-06-10T03:52:08;24.20;46.50
4411;DHT22;2218;51.408;7.208;2023-06-10T03:54:35;24.20;46.50
4411;DHT22;2218;51.408;7.208;2023-06-10T03:57:03;24.10;46.40
4411;DHT22;2218;51.408;7.208;2023-06-10T03:59:31;24.20;46.50
4411;DHT22;2218;51.408;7.208;2023-06-10T04:01:58;24.20;46.40
4411;DHT22;2218;51.408;7.208;2023-06-10T04:04:25;24.20;46.50
4411;DHT22;2218;51.408;7.208;2023-06-10T04:06:52;24.10;46.40
4411;DHT22;2218;51.408;7.208;2023-06-10T04:09:21;24.20;46.50
4411;DHT22;2218;51.408;7.208;2023-06-10T04:11:48;24.20;46.50
4411;DHT22;2218;51.408;7.208;2023-06-10T04:14:15;24.20;46.50
4411;DHT22;2218;51.408;7.208;2023-06-10T04:16:43;24.20;46.50
4411;DHT22;2218;51.408;7.208;2023-06-10T04:19:11;24.20;46.50
4411;DHT22;2218;51.408;7.208;2023-06-10T04:21:38;24.20;46.50
4411;DHT22;2218;51.408;7.208;2023-06-10T04:24:05;24.20;46.50
4411;DHT22;2218;51.408;7.208;2023-06-10T04:26:35;24.20;46.50
4411;DHT22;2218;51.408;7.208;2023-06-10T04:29:03;24.20;46.60
4411;DHT22;2218;51.408;7.208;2023-06-10T04:31:30;24.20;46.60
4411;DHT22;2218;51.408;7.208;2023-06-10T04:33:59;24.20;46.50
4411;DHT22;2218;51.408;7.208;2023-06-10T04:36:28;24.20;46.60
4411;DHT22;2218;51.408;7.208;2023-06-10T04:38:55;24.20;46.60
4411;DHT22;2218;51.408;7.208;2023-06-10T04:41:22;24.20;46.60
4411;DHT22;2218;51.408;7.208;2023-06-10T04:43:51;24.20;46.60
4411;DHT22;2218;51.408;7.208;2023-06-10T04:46:19;24.20;46.60
4411;DHT22;2218;51.408;7.208;2023-06-10T04:48:46;24.20;46.60
4411;DHT22;2218;51.408;7.208;2023-06-10T04:51:13;24.20;46.60
4411;DHT22;2218;51.408;7.208;2023-06-10T04:53:40;24.20;46.60
4411;DHT22;2218;51.408;7.208;2023-06-10T04:56:07;24.30;46.60
4411;DHT22;2218;51.408;7.208;2023-06-10T04:58:34;24.30;46.50
4411;DHT22;2218;51.408;7.208;2023-06-10T05:01:02;24.30;46.40
4411;DHT22;2218;51.408;7.208;2023-06-10T05:03:29;24.40;46.10
4411;DHT22;2218;51.408;7.208;2023-06-10T05:05:56;24.50;46.20
4411;DHT22;2218;51.408;7.208;2023-06-10T05:08:23;24.60;46.10
4411;DHT22;2218;51.408;7.208;2023-06-10T05:10:50;24.60;46.10
4411;DHT22;2218;51.408;7.208;2023-06-10T05:13:17;24.70;46.10
4411;DHT22;2218;51.408;7.208;2023-06-10T05:15:44;24.80;46.10
4411;DHT22;2218;51.408;7.208;2023-06-10T05:18:13;24.90;46.50
4411;DHT22;2218;51.408;7.208;2023-06-10T05:20:40;25.00;45.80
4411;DHT22;2218;51.408;7.208;2023-06-10T05:23:07;25.00;45.70
4411;DHT22;2218;51.408;7.208;2023-06-10T05:25:34;25.10;45.70
4411;DHT22;2218;51.408;7.208;2023-06-10T05:28:01;25.10;45.60
4411;DHT22;2218;51.408;7.208;2023-06-10T05:30:28;25.20;45.40
4411;DHT22;2218;51.408;7.208;2023-06-10T05:32:55;25.20;45.30
4411;DHT22;2218;51.408;7.208;2023-06-10T05:35:24;25.30;45.50
4411;DHT22;2218;51.408;7.208;2023-06-10T05:37:51;25.40;45.30
4411;DHT22;2218;51.408;7.208;2023-06-10T05:40:18;25.40;45.20
4411;DHT22;2218;51.408;7.208;2023-06-10T05:42:45;25.50;45.20
4411;DHT22;2218;51.408;7.208;2023-06-10T05:45:12;25.50;45.10
4411;DHT22;2218;51.408;7.208;2023-06-10T05:47:39;25.60;45.00
4411;DHT22;2218;51.408;7.208;2023-06-10T05:50:07;25.70;44.90
4411;DHT22;2218;51.408;7.208;2023-06-10T05:52:36;25.70;44.80
4411;DHT22;2218;51.408;7.208;2023-06-10T05:55:06;25.80;44.90
4411;DHT22;2218;51.408;7.208;2023-06-10T05:57:33;25.80;44.90
4411;DHT22;2218;51.408;7.208;2023-06-10T06:00:00;25.90;44.90
4411;DHT22;2218;51.408;7.208;2023-06-10T06:02:27;25.90;44.80
4411;DHT22;2218;51.408;7.208;2023-06-10T06:04:54;26.00;44.70
4411;DHT22;2218;51.408;7.208;2023-06-10T06:07:21;26.00;44.60
4411;DHT22;2218;51.408;7.208;2023-06-10T06:09:50;26.10;44.60
4411;DHT22;2218;51.408;7.208;2023-06-10T06:12:17;26.10;44.70
4411;DHT22;2218;51.408;7.208;2023-06-10T06:14:44;26.20;44.50
4411;DHT22;2218;51.408;7.208;2023-06-10T06:17:11;26.20;44.20
4411;DHT22;2218;51.408;7.208;2023-06-10T06:19:38;26.30;44.30
4411;DHT22;2218;51.408;7.208;2023-06-10T06:22:05;26.30;44.20
4411;DHT22;2218;51.408;7.208;2023-06-10T06:24:32;26.30;44.00
4411;DHT22;2218;51.408;7.208;2023-06-10T06:27:00;26.40;44.10
4411;DHT22;2218;51.408;7.208;2023-06-10T06:29:27;26.40;44.10
4411;DHT22;2218;51.408;7.208;2023-06-10T06:31:55;26.50;44.00
4411;DHT22;2218;51.408;7.208;2023-06-10T06:34:22;26.50;43.80
4411;DHT22;2218;51.408;7.208;2023-06-10T06:36:49;26.60;44.00
4411;DHT22;2218;51.408;7.208;2023-06-10T06:39:17;26.60;43.80
4411;DHT22;2218;51.408;7.208;2023-06-10T06:41:44;26.60;43.70
4411;DHT22;2218;51.408;7.208;2023-06-10T06:44:12;26.60;43.80
4411;DHT22;2218;51.408;7.208;2023-06-10T06:46:43;26.60;43.90
4411;DHT22;2218;51.408;7.208;2023-06-10T06:49:10;26.60;43.80
4411;DHT22;2218;51.408;7.208;2023-06-10T06:51:37;26.70;43.60
4411;DHT22;2218;51.408;7.208;2023-06-10T06:54:04;26.70;43.60
4411;DHT22;2218;51.408;7.208;2023-06-10T06:56:31;26.70;43.80
4411;DHT22;2218;51.408;7.208;2023-06-10T06:58:58;26.70;43.70
4411;DHT22;2218;51.408;7.208;2023-06-10T07:01:26;26.70;43.50
4411;DHT22;2218;51.408;7.208;2023-06-10T07:03:53;26.70;43.70
4411;DHT22;2218;51.408;7.208;2023-06-10T07:06:20;26.70;43.50
4411;DHT22;2218;51.408;7.208;2023-06-10T07:08:49;26.70;43.70
4411;DHT22;2218;51.408;7.208;2023-06-10T07:11:16;26.70;43.60
4411;DHT22;2218;51.408;7.208;2023-06-10T07:13:44;26.70;43.60
4411;DHT22;2218;51.408;7.208;2023-06-10T07:16:11;26.70;43.60
4411;DHT22;2218;51.408;7.208;2023-06-10T07:18:39;26.70;43.60
4411;DHT22;2218;51.408;7.208;2023-06-10T07:21:06;26.70;43.50
4411;DHT22;2218;51.408;7.208;2023-06-10T07:23:33;26.80;43.90
4411;DHT22;2218;51.408;7.208;2023-06-10T07:26:00;26.80;43.80
4411;DHT22;2218;51.408;7.208;2023-06-10T07:28:27;26.80;43.80
4411;DHT22;2218;51.408;7.208;2023-06-10T07:30:53;26.70;43.70
4411;DHT22;2218;51.408;7.208;2023-06-10T07:33:20;26.80;43.80
4411;DHT22;2218;51.408;7.208;2023-06-10T07:35:49;26.70;43.50
4411;DHT22;2218;51.408;7.208;2023-06-10T07:38:17;26.80;43.70
4411;DHT22;2218;51.408;7.208;2023-06-10T07:40:44;26.70;43.60
4411;DHT22;2218;51.408;7.208;2023-06-10T07:43:11;26.70;43.80
4411;DHT22;2218;51.408;7.208;2023-06-10T07:45:39;26.70;43.70
4411;DHT22;2218;51.408;7.208;2023-06-10T07:48:06;26.70;43.60
4411;DHT22;2218;51.408;7.208;2023-06-10T07:50:34;26.70;43.60
4411;DHT22;2218;51.408;7.208;2023-06-10T07:53:02;26.70;43.90
4411;DHT22;2218;51.408;7.208;2023-06-10T07:55:29;26.70;43.70
4411;DHT22;2218;51.408;7.208;2023-06-10T07:57:56;26.70;43.50
4411;DHT22;2218;51.408;7.208;2023-06-10T08:00:23;26.70;43.90
4411;DHT22;2218;51.408;7.208;2023-06-10T08:02:50;26.70;43.50
4411;DHT22;2218;51.408;7.208;2023-06-10T08:05:17;26.70;43.40
4411;DHT22;2218;51.408;7.208;2023-06-10T08:07:44;26.60;43.50
4411;DHT22;2218;51.408;7.208;2023-06-10T08:10:13;26.70;43.60
4411;DHT22;2218;51.408;7.208;2023-06-10T08:12:40;26.70;43.50
4411;DHT22;2218;51.408;7.208;2023-06-10T08:15:07;26.60;43.50
4411;DHT22;2218;51.408;7.208;2023-06-10T08:17:35;26.60;43.50
4411;DHT22;2218;51.408;7.208;2023-06-10T08:20:04;26.60;43.80
4411;DHT22;2218;51.408;7.208;2023-06-10T08:22:32;26.60;43.80
4411;DHT22;2218;51.408;7.208;2023-06-10T08:24:59;26.50;43.50
4411;DHT22;2218;51.408;7.208;2023-06-10T08:27:27;26.50;43.90
4411;DHT22;2218;51.408;7.208;2023-06-10T08:29:54;26.60;44.20
4411;DHT22;2218;51.408;7.208;2023-06-10T08:32:21;26.50;43.90
4411;DHT22;2218;51.408;7.208;2023-06-10T08:34:48;26.50;43.80
4411;DHT22;2218;51.408;7.208;2023-06-10T08:37:14;26.50;43.90
4411;DHT22;2218;51.408;7.208;2023-06-10T08:39:41;26.50;43.70
4411;DHT22;2218;51.408;7.208;2023-06-10T08:42:11;26.40;43.90
4411;DHT22;2218;51.408;7.208;2023-06-10T08:44:53;26.50;43.90
4411;DHT22;2218;51.408;7.208;2023-06-10T08:47:23;26.40;43.90
4411;DHT22;2218;51.408;7.208;2023-06-10T08:49:53;26.40;44.00
4411;DHT22;2218;51.408;7.208;2023-06-10T08:52:22;26.40;44.30
4411;DHT22;2218;51.408;7.208;2023-06-10T08:54:57;26.40;44.00
4411;DHT22;2218;51.408;7.208;2023-06-10T08:57:27;26.40;43.90
4411;DHT22;2218;51.408;7.208;2023-06-10T08:59:56;26.40;43.90
4411;DHT22;2218;51.408;7.208;2023-06-10T09:02:25;26.40;44.20
4411;DHT22;2218;51.408;7.208;2023-06-10T09:04:53;26.40;43.90
4411;DHT22;2218;51.408;7.208;2023-06-10T09:07:23;26.30;44.00
4411;DHT22;2218;51.408;7.208;2023-06-10T09:09:51;26.30;44.20
4411;DHT22;2218;51.408;7.208;2023-06-10T09:12:20;26.30;43.90
4411;DHT22;2218;51.408;7.208;2023-06-10T09:14:47;26.30;43.70
4411;DHT22;2218;51.408;7.208;2023-06-10T09:17:15;26.30;43.50
4411;DHT22;2218;51.408;7.208;2023-06-10T09:19:44;26.30;44.00
4411;DHT22;2218;51.408;7.208;2023-06-10T09:22:12;26.30;43.90
4411;DHT22;2218;51.408;7.208;2023-06-10T09:24:40;26.30;43.80
4411;DHT22;2218;51.408;7.208;2023-06-10T09:27:08;26.30;43.70
4411;DHT22;2218;51.408;7.208;2023-06-10T09:29:46;26.30;44.00
4411;DHT22;2218;51.408;7.208;2023-06-10T09:32:16;26.30;44.20
4411;DHT22;2218;51.408;7.208;2023-06-10T09:34:44;26.20;43.50
4411;DHT22;2218;51.408;7.208;2023-06-10T09:37:12;26.20;43.90
4411;DHT22;2218;51.408;7.208;2023-06-10T09:39:40;26.20;43.70
4411;DHT22;2218;51.408;7.208;2023-06-10T09:42:15;26.20;43.80
4411;DHT22;2218;51.408;7.208;2023-06-10T09:44:49;26.20;43.80
4411;DHT22;2218;51.408;7.208;2023-06-10T09:47:21;26.20;43.90
4411;DHT22;2218;51.408;7.208;2023-06-10T09:49:50;26.20;43.90
4411;DHT22;2218;51.408;7.208;2023-06-10T09:52:21;26.20;43.80
4411;DHT22;2218;51.408;7.208;2023-06-10T09:54:49;26.20;43.70
4411;DHT22;2218;51.408;7.208;2023-06-10T09:57:17;26.20;43.50
4411;DHT22;2218;51.408;7.208;2023-06-10T09:59:45;26.20;43.70
4411;DHT22;2218;51.408;7.208;2023-06-10T10:02:15;26.20;43.80
4411;DHT22;2218;51.408;7.208;2023-06-10T10:04:44;26.20;43.70
4411;DHT22;2218;51.408;7.208;2023-06-10T10:07:12;26.20;43.50
4411;DHT22;2218;51.408;7.208;2023-06-10T10:09:40;26.20;43.60
4411;DHT22;2218;51.408;7.208;2023-06-10T10:12:10;26.10;43.50
4411;DHT22;2218;51.408;7.208;2023-06-10T10:14:38;26.10;43.50
4411;DHT22;2218;51.408;7.208;2023-06-10T10:17:09;26.20;43.40
4411;DHT22;2218;51.408;7.208;2023-06-10T10:19:42;26.10;43.20
4411;DHT22;2218;51.408;7.208;2023-06-10T10:22:18;26.20;43.90
4411;DHT22;2218;51.408;7.208;2023-06-10T10:24:49;26.10;43.60
4411;DHT22;2218;51.408;7.208;2023-06-10T10:27:21;26.10;43.70
4411;DHT22;2218;51.408;7.208;2023-06-10T10:29:55;26.10;43.60
4411;DHT22;2218;51.408;7.208;2023-06-10T10:32:31;26.10;43.60
4411;DHT22;2218;51.408;7.208;2023-06-10T10:35:09;26.10;43.90
4411;DHT22;2218;51.408;7.208;2023-06-10T10:37:39;26.10;43.50
4411;DHT22;2218;51.408;7.208;2023-06-10T10:40:08;26.10;43.60
4411;DHT22;2218;51.408;7.208;2023-06-10T10:42:38;26.10;43.70
4411;DHT22;2218;51.408;7.208;2023-06-10T10:45:07;26.10;43.70
4411;DHT22;2218;51.408;7.208;2023-06-10T10:47:36;26.10;43.90
4411;DHT22;2218;51.408;7.208;2023-06-10T10:50:15;26.10;43.50
4411;DHT22;2218;51.408;7.208;2023-06-10T10:52:54;26.10;43.80
4411;DHT22;2218;51.408;7.208;2023-06-10T10:55:22;26.10;43.70
4411;DHT22;2218;51.408;7.208;2023-06-10T10:57:58;26.10;43.70
4411;DHT22;2218;51.408;7.208;2023-06-10T11:00:30;26.10;43.90
4411;DHT22;2218;51.408;7.208;2023-06-10T11:02:59;26.10;43.80
4411;DHT22;2218;51.408;7.208;2023-06-10T11:05:36;26.00;43.70
4411;DHT22;2218;51.408;7.208;2023-06-10T11:08:05;26.00;43.70
4411;DHT22;2218;51.408;7.208;2023-06-10T11:10:34;26.00;43.60
4411;DHT22;2218;51.408;7.208;2023-06-10T11:13:06;26.10;43.30
4411;DHT22;2218;51.408;7.208;2023-06-10T11:15:42;26.00;43.50
4411;DHT22;2218;51.408;7.208;2023-06-10T11:18:22;26.00;43.40
4411;DHT22;2218;51.408;7.208;2023-06-10T11:20:53;26.00;43.80
4411;DHT22;2218;51.408;7.208;2023-06-10T11:23:38;26.10;43.70
4411;DHT22;2218;51.408;7.208;2023-06-10T11:26:10;26.00;43.60
4411;DHT22;2218;51.408;7.208;2023-06-10T11:29:05;26.00;43.80
4411;DHT22;2218;51.408;7.208;2023-06-10T11:31:39;26.00;43.20
4411;DHT22;2218;51.408;7.208;2023-06-10T11:34:08;26.00;43.60
4411;DHT22;2218;51.408;7.208;2023-06-10T11:36:39;26.00;43.60
4411;DHT22;2218;51.408;7.208;2023-06-10T11:39:08;26.00;43.30
4411;DHT22;2218;51.408;7.208;2023-06-10T11:41:37;26.00;42.80
4411;DHT22;2218;51.408;7.208;2023-06-10T11:44:08;26.00;43.30
4411;DHT22;2218;51.408;7.208;2023-06-10T11:46:36;26.00;43.40
4411;DHT22;2218;51.408;7.208;2023-06-10T11:49:04;26.00;43.30
4411;DHT22;2218;51.408;7.208;2023-06-10T11:51:34;26.00;43.50
4411;DHT22;2218;51.408;7.208;2023-06-10T11:54:05;26.00;43.40
4411;DHT22;2218;51.408;7.208;2023-06-10T11:56:32;26.00;43.30
4411;DHT22;2218;51.408;7.208;2023-06-10T11:59:00;26.00;43.20
4411;DHT22;2218;51.408;7.208;2023-06-10T12:01:32;26.00;43.40
4411;DHT22;2218;51.408;7.208;2023-06-10T12:04:01;26.00;43.20
4411;DHT22;2218;51.408;7.208;2023-06-10T12:06:43;26.00;43.40
4411;DHT22;2218;51.408;7.208;2023-06-10T12:09:19;26.00;43.20
4411;DHT22;2218;51.408;7.208;2023-06-10T12:11:49;26.00;43.00
4411;DHT22;2218;51.408;7.208;2023-06-10T12:14:51;26.00;43.30
4411;DHT22;2218;51.408;7.208;2023-06-10T12:17:27;26.00;43.20
4411;DHT22;2218;51.408;7.208;2023-06-10T12:20:04;26.00;43.00
4411;DHT22;2218;51.408;7.208;2023-06-10T12:22:38;26.00;42.90
4411;DHT22;2218;51.408;7.208;2023-06-10T12:25:07;26.00;42.80
4411;DHT22;2218;51.408;7.208;2023-06-10T12:27:36;26.00;42.50
4411;DHT22;2218;51.408;7.208;2023-06-10T12:30:05;26.00;42.90
4411;DHT22;2218;51.408;7.208;2023-06-10T12:32:38;26.00;42.60
4411;DHT22;2218;51.408;7.208;2023-06-10T12:35:08;26.00;42.80
4411;DHT22;2218;51.408;7.208;2023-06-10T12:37:37;26.00;42.80
4411;DHT22;2218;51.408;7.208;2023-06-10T12:40:06;26.00;42.80
4411;DHT22;2218;51.408;7.208;2023-06-10T12:42:35;26.00;42.70
4411;DHT22;2218;51.408;7.208;2023-06-10T12:45:04;26.00;42.80
4411;DHT22;2218;51.408;7.208;2023-06-10T12:47:33;26.00;42.60
4411;DHT22;2218;51.408;7.208;2023-06-10T12:50:04;26.00;43.00
4411;DHT22;2218;51.408;7.208;2023-06-10T12:52:32;26.00;42.60
4411;DHT22;2218;51.408;7.208;2023-06-10T12:55:00;26.00;42.70
4411;DHT22;2218;51.408;7.208;2023-06-10T12:57:27;26.00;42.80
4411;DHT22;2218;51.408;7.208;2023-06-10T12:59:55;26.00;42.60
4411;DHT22;2218;51.408;7.208;2023-06-10T13:02:28;26.00;42.40
4411;DHT22;2218;51.408;7.208;2023-06-10T13:04:55;26.00;42.60
4411;DHT22;2218;51.408;7.208;2023-06-10T13:07:22;26.00;42.60
4411;DHT22;2218;51.408;7.208;2023-06-10T13:09:49;26.00;42.50
4411;DHT22;2218;51.408;7.208;2023-06-10T13:12:17;26.00;42.50
4411;DHT22;2218;51.408;7.208;2023-06-10T13:14:44;26.00;42.60
4411;DHT22;2218;51.408;7.208;2023-06-10T13:17:11;26.00;42.30
4411;DHT22;2218;51.408;7.208;2023-06-10T13:19:38;26.00;42.30
4411;DHT22;2218;51.408;7.208;2023-06-10T13:22:05;26.00;42.40
4411;DHT22;2218;51.408;7.208;2023-06-10T13:24:32;26.00;42.10
4411;DHT22;2218;51.408;7.208;2023-06-10T13:26:59;26.00;42.40
4411;DHT22;2218;51.408;7.208;2023-06-10T13:29:28;26.00;42.30
4411;DHT22;2218;51.408;7.208;2023-06-10T13:31:56;26.00;42.40
4411;DHT22;2218;51.408;7.208;2023-06-10T13:34:23;26.00;42.10
4411;DHT22;2218;51.408;7.208;2023-06-10T13:36:50;26.00;42.00
4411;DHT22;2218;51.408;7.208;2023-06-10T13:39:17;26.00;42.20
4411;DHT22;2218;51.408;7.208;2023-06-10T13:41:44;26.00;42.30
4411;DHT22;2218;51.408;7.208;2023-06-10T13:44:11;26.00;42.30
4411;DHT22;2218;51.408;7.208;2023-06-10T13:46:39;26.00;42.10
4411;DHT22;2218;51.408;7.208;2023-06-10T13:49:06;26.00;41.90
4411;DHT22;2218;51.408;7.208;2023-06-10T13:51:33;26.10;42.30
4411;DHT22;2218;51.408;7.208;2023-06-10T13:53:59;26.00;42.00
4411;DHT22;2218;51.408;7.208;2023-06-10T13:56:26;26.00;42.00
4411;DHT22;2218;51.408;7.208;2023-06-10T13:58:53;26.10;42.00
4411;DHT22;2218;51.408;7.208;2023-06-10T14:01:20;26.00;42.20
4411;DHT22;2218;51.408;7.208;2023-06-10T14:03:49;26.00;41.90
4411;DHT22;2218;51.408;7.208;2023-06-10T14:06:16;26.00;41.60
4411;DHT22;2218;51.408;7.208;2023-06-10T14:08:44;26.00;41.70
4411;DHT22;2218;51.408;7.208;2023-06-10T14:11:11;26.00;41.70
4411;DHT22;2218;51.408;7.208;2023-06-10T14:13:38;26.00;41.60
4411;DHT22;2218;51.408;7.208;2023-06-10T14:16:05;26.00;41.70
4411;DHT22;2218;51.408;7.208;2023-06-10T14:18:32;26.00;41.70
4411;DHT22;2218;51.408;7.208;2023-06-10T14:21:01;26.00;41.60
4411;DHT22;2218;51.408;7.208;2023-06-10T14:23:28;26.10;41.60
4411;DHT22;2218;51.408;7.208;2023-06-10T14:25:55;26.10;41.50
4411;DHT22;2218;51.408;7.208;2023-06-10T14:28:22;26.00;41.50
4411;DHT22;2218;51.408;7.208;2023-06-10T14:30:51;26.00;41.50
4411;DHT22;2218;51.408;7.208;2023-06-10T14:33:18;26.00;41.40
4411;DHT22;2218;51.408;7.208;2023-06-10T14:35:45;26.10;41.50
4411;DHT22;2218;51.408;7.208;2023-06-10T14:38:13;26.00;41.50
4411;DHT22;2218;51.408;7.208;2023-06-10T14:40:40;26.00;41.40
4411;DHT22;2218;51.408;7.208;2023-06-10T14:43:07;26.00;41.30
4411;DHT22;2218;51.408;7.208;2023-06-10T14:45:35;26.00;41.30
4411;DHT22;2218;51.408;7.208;2023-06-10T14:48:03;26.10;41.50
4411;DHT22;2218;51.408;7.208;2023-06-10T14:50:30;26.00;41.40
4411;DHT22;2218;51.408;7.208;2023-06-10T14:52:58;26.00;41.30
4411;DHT22;2218;51.408;7.208;2023-06-10T14:55:26;26.10;41.50
4411;DHT22;2218;51.408;7.208;2023-06-10T14:57:53;26.00;41.40
4411;DHT22;2218;51.408;7.208;2023-06-10T15:00:20;26.10;41.30
4411;DHT22;2218;51.408;7.208;2023-06-10T15:02:50;26.10;41.40
4411;DHT22;2218;51.408;7.208;2023-06-10T15:05:18;26.10;41.50
4411;DHT22;2218;51.408;7.208;2023-06-10T15:07:45;26.10;41.30
4411;DHT22;2218;51.408;7.208;2023-06-10T15:10:13;26.10;41.50
4411;DHT22;2218;51.408;7.208;2023-06-10T15:12:42;26.00;41.10
4411;DHT22;2218;51.408;7.208;2023-06-10T15:15:09;26.10;41.40
4411;DHT22;2218;51.408;7.208;2023-06-10T15:17:36;26.00;41.10
4411;DHT22;2218;51.408;7.208;2023-06-10T15:20:04;26.10;41.40
4411;DHT22;2218;51.408;7.208;2023-06-10T15:22:32;26.10;41.20
4411;DHT22;2218;51.408;7.208;2023-06-10T15:24:59;26.00;41.20
4411;DHT22;2218;51.408;7.208;2023-06-10T15:27:26;26.00;41.20
4411;DHT22;2218;51.408;7.208;2023-06-10T15:29:54;26.00;41.20
4411;DHT22;2218;51.408;7.208;2023-06-10T15:32:21;26.10;41.30
4411;DHT22;2218;51.408;7.208;2023-06-10T15:34:48;26.00;41.10
4411;DHT22;2218;51.408;7.208;2023-06-10T15:37:16;26.00;40.90
4411;DHT22;2218;51.408;7.208;2023-06-10T15:39:43;26.00;41.00
4411;DHT22;2218;51.408;7.208;2023-06-10T15:42:10;26.10;41.00
4411;DHT22;2218;51.408;7.208;2023-06-10T15:44:37;26.10;41.10
4411;DHT22;2218;51.408;7.208;2023-06-10T15:47:05;26.10;41.00
4411;DHT22;2218;51.408;7.208;2023-06-10T15:49:32;26.10;41.10
4411;DHT22;2218;51.408;7.208;2023-06-10T15:52:00;26.00;41.00
4411;DHT22;2218;51.408;7.208;2023-06-10T15:54:27;26.10;40.80
4411;DHT22;2218;51.408;7.208;2023-06-10T15:56:54;26.00;41.00
4411;DHT22;2218;51.408;7.208;2023-06-10T15:59:21;26.10;40.80
4411;DHT22;2218;51.408;7.208;2023-06-10T16:01:47;26.00;40.90
4411;DHT22;2218;51.408;7.208;2023-06-10T16:04:16;26.10;41.10
4411;DHT22;2218;51.408;7.208;2023-06-10T16:06:43;26.10;41.00
4411;DHT22;2218;51.408;7.208;2023-06-10T16:09:10;26.10;41.00
4411;DHT22;2218;51.408;7.208;2023-06-10T16:11:36;26.10;41.20